createdAt,value
2018-12-11T00:01:49.666Z,2.93
2018-12-11T00:06:59.017Z,2.96
2018-12-11T00:12:07.109Z,2.79
2018-12-11T00:17:16.282Z,2.65
2018-12-11T00:22:25.836Z,2.59
2018-12-11T00:27:35.102Z,2.73
2018-12-11T00:32:44.470Z,2.54
2018-12-11T00:37:53.721Z,2.69
2018-12-11T00:43:01.663Z,2.74
2018-12-11T00:48:11.152Z,2.74
2018-12-11T00:53:20.530Z,2.69
2018-12-11T00:58:29.702Z,2.70
2018-12-11T01:03:39.150Z,2.53
2018-12-11T01:08:50.416Z,2.32
2018-12-11T01:13:49.825Z,2.27
2018-12-11T01:18:58.970Z,2.37
2018-12-11T01:24:07.242Z,2.47
2018-12-11T01:29:16.366Z,2.44
2018-12-11T01:34:26.009Z,2.46
2018-12-11T01:39:35.281Z,2.46
2018-12-11T01:44:44.786Z,2.46
2018-12-11T01:49:54.171Z,2.44
2018-12-11T01:55:02.190Z,2.29
2018-12-11T02:00:11.388Z,2.05
2018-12-11T02:05:20.933Z,2.29
2018-12-11T02:10:30.093Z,2.32
2018-12-11T02:15:38.121Z,2.26
2018-12-11T02:20:47.377Z,2.30
2018-12-11T02:25:56.901Z,2.15
2018-12-11T02:31:06.096Z,2.29
2018-12-11T02:36:15.555Z,2.51
2018-12-11T02:41:24.822Z,2.12
2018-12-11T02:46:34.182Z,2.32
2018-12-11T02:51:43.682Z,2.10
2018-12-11T02:56:53.283Z,2.12
2018-12-11T03:02:02.430Z,2.20
2018-12-11T03:07:11.999Z,2.23
2018-12-11T03:12:21.140Z,2.38
2018-12-11T03:17:30.669Z,2.02
2018-12-11T03:22:39.983Z,1.97
2018-12-11T03:27:48.094Z,1.94
2018-12-11T03:32:57.341Z,2.08
2018-12-11T03:38:06.925Z,1.91
2018-12-11T03:43:16.181Z,2.11
2018-12-11T03:48:25.609Z,2.05
2018-12-11T03:53:35.134Z,1.86
2018-12-11T03:58:44.550Z,1.91
2018-12-11T04:03:53.694Z,1.86
2018-12-11T04:09:03.073Z,1.99
2018-12-11T04:14:12.511Z,1.91
2018-12-11T04:19:22.029Z,1.86
2018-12-11T04:24:31.161Z,1.84
2018-12-11T04:29:40.938Z,1.89
2018-12-11T04:34:50.190Z,1.76
2018-12-11T04:39:59.588Z,1.78
2018-12-11T04:45:08.814Z,1.71
2018-12-11T04:50:18.410Z,1.83
2018-12-11T04:55:32.837Z,1.87
2018-12-11T05:00:32.581Z,1.93
2018-12-11T05:05:41.727Z,1.87
2018-12-11T05:10:51.173Z,1.88
2018-12-11T05:16:00.305Z,1.87
2018-12-11T05:21:10.068Z,1.77
2018-12-11T05:26:17.721Z,1.89
2018-12-11T05:31:27.501Z,1.95
2018-12-11T05:36:36.666Z,1.87
2018-12-11T05:41:46.215Z,1.76
2018-12-11T05:46:55.361Z,1.83
2018-12-11T05:52:04.908Z,2.22
2018-12-11T05:57:14.423Z,2.12
2018-12-11T06:02:23.921Z,2.24
2018-12-11T06:07:33.222Z,1.86
2018-12-11T06:12:42.534Z,2.58
2018-12-11T06:17:51.713Z,2.17
2018-12-11T06:23:01.241Z,2.50
2018-12-11T06:28:10.437Z,2.58
2018-12-11T06:33:20.056Z,2.71
2018-12-11T06:38:29.206Z,2.52
2018-12-11T06:43:37.422Z,2.98
2018-12-11T06:48:46.593Z,2.49
2018-12-11T06:53:55.939Z,2.89
2018-12-11T06:59:05.356Z,2.72
2018-12-11T07:04:14.968Z,3.04
2018-12-11T07:09:24.084Z,2.76
2018-12-11T07:14:33.462Z,2.78
2018-12-11T07:19:42.674Z,2.77
2018-12-11T07:24:52.201Z,2.71
2018-12-11T07:30:01.365Z,2.83
2018-12-11T07:35:10.971Z,2.85
2018-12-11T07:40:20.247Z,2.44
2018-12-11T07:45:29.779Z,2.61
2018-12-11T07:50:38.961Z,2.67
2018-12-11T07:55:48.536Z,2.89
2018-12-11T08:00:57.865Z,2.81
2018-12-11T08:06:07.681Z,2.54
2018-12-11T08:11:16.872Z,3.07
2018-12-11T08:16:26.331Z,2.84
2018-12-11T08:21:35.514Z,3.06
2018-12-11T08:26:44.680Z,2.97
2018-12-11T08:31:53.886Z,3.09
2018-12-11T08:37:03.261Z,2.88
2018-12-11T08:42:12.399Z,3.08
2018-12-11T08:47:22.007Z,2.69
2018-12-11T08:52:31.222Z,3.09
2018-12-11T08:57:40.472Z,2.72
2018-12-11T09:02:49.891Z,2.58
2018-12-11T09:07:59.535Z,2.72
2018-12-11T09:13:08.766Z,2.85
2018-12-11T09:18:18.241Z,2.94
2018-12-11T09:23:27.450Z,2.83
2018-12-11T09:28:36.863Z,2.63
2018-12-11T09:33:46.182Z,2.75
2018-12-11T09:38:55.573Z,2.71
2018-12-11T09:44:04.716Z,2.74
2018-12-11T09:49:14.362Z,2.81
2018-12-11T09:54:23.814Z,2.90
2018-12-11T09:59:31.760Z,2.90
2018-12-11T10:04:40.962Z,2.64
2018-12-11T10:09:50.637Z,2.59
2018-12-11T10:14:59.793Z,2.96
2018-12-11T10:20:09.593Z,2.94
2018-12-11T10:25:18.811Z,2.75
2018-12-11T10:30:28.278Z,2.93
2018-12-11T10:35:37.435Z,3.35
2018-12-11T10:40:46.977Z,3.37
2018-12-11T10:45:56.213Z,3.53
2018-12-11T10:51:05.717Z,3.51
2018-12-11T10:56:15.193Z,3.53
2018-12-11T11:01:24.450Z,4.09
2018-12-11T11:06:32.149Z,3.82
2018-12-11T11:11:42.153Z,3.64
2018-12-11T11:16:51.216Z,3.74
2018-12-11T11:22:00.644Z,3.60
2018-12-11T11:27:09.933Z,3.71
2018-12-11T11:32:19.412Z,3.63
2018-12-11T11:37:28.597Z,4.18
2018-12-11T11:42:37.985Z,3.76
2018-12-11T11:47:47.161Z,3.80
2018-12-11T11:52:56.680Z,3.80
2018-12-11T11:58:06.076Z,3.96
2018-12-11T12:03:13.914Z,3.52
2018-12-11T12:08:23.057Z,3.75
2018-12-11T12:13:32.467Z,3.47
2018-12-11T12:18:41.649Z,3.49
2018-12-11T12:23:51.229Z,3.28
2018-12-11T12:29:00.364Z,3.34
2018-12-11T12:34:08.130Z,3.31
2018-12-11T12:39:17.258Z,3.33
2018-12-11T12:44:26.584Z,3.38
2018-12-11T12:49:35.836Z,3.00
2018-12-11T12:54:45.264Z,3.21
2018-12-11T12:59:54.641Z,3.06
2018-12-11T13:05:04.125Z,2.96
2018-12-11T13:10:13.262Z,2.97
2018-12-11T13:15:22.669Z,3.17
2018-12-11T13:20:31.976Z,3.02
2018-12-11T13:25:41.625Z,2.88
2018-12-11T13:30:50.892Z,2.95
2018-12-11T13:36:00.410Z,3.16
2018-12-11T13:41:09.725Z,2.94
2018-12-11T13:46:19.050Z,3.12
2018-12-11T13:51:28.364Z,3.24
2018-12-11T13:56:37.890Z,2.95
2018-12-11T14:01:47.334Z,3.09
2018-12-11T14:06:56.701Z,3.15
2018-12-11T14:12:05.811Z,3.10
2018-12-11T14:17:15.219Z,2.79
2018-12-11T14:22:24.342Z,2.69
2018-12-11T14:27:33.900Z,2.76
2018-12-11T14:32:43.138Z,2.84
2018-12-11T14:37:55.412Z,2.89
2018-12-11T14:42:54.542Z,3.00
2018-12-11T14:48:03.966Z,2.71
2018-12-11T14:53:13.186Z,2.87
2018-12-11T14:58:22.729Z,2.61
2018-12-11T15:03:32.165Z,2.62
2018-12-11T15:08:41.797Z,2.69
2018-12-11T15:13:50.954Z,3.51
2018-12-11T15:19:00.400Z,3.50
2018-12-11T15:24:09.508Z,4.44
2018-12-11T15:29:19.042Z,4.46
2018-12-11T15:34:28.251Z,4.26
2018-12-11T15:39:37.919Z,4.69
2018-12-11T15:44:45.591Z,4.67
2018-12-11T15:49:55.948Z,4.74
2018-12-11T15:54:55.076Z,4.48
2018-12-11T16:00:04.504Z,4.80
2018-12-11T16:05:13.953Z,4.21
2018-12-11T16:10:23.529Z,4.07
2018-12-11T16:15:32.766Z,4.42
2018-12-11T16:20:42.221Z,4.28
2018-12-11T16:25:51.369Z,4.50
2018-12-11T16:31:05.714Z,4.55
2018-12-11T16:36:04.980Z,4.40
2018-12-11T16:41:14.236Z,4.18
2018-12-11T16:46:23.411Z,4.33
2018-12-11T16:51:32.898Z,4.00
2018-12-11T16:56:42.172Z,3.92
2018-12-11T17:01:51.654Z,3.82
2018-12-11T17:07:01.059Z,3.67
2018-12-11T17:12:10.393Z,3.86
2018-12-11T17:17:18.070Z,3.66
2018-12-11T17:22:27.400Z,3.74
2018-12-11T17:27:36.675Z,4.13
2018-12-11T17:32:46.303Z,3.92
2018-12-11T17:37:53.962Z,4.27
2018-12-11T17:44:18.044Z,4.57
2018-12-11T17:49:17.127Z,4.81
2018-12-11T17:54:26.741Z,4.69
2018-12-11T17:59:41.034Z,4.78
2018-12-11T18:04:40.715Z,5.07
2018-12-11T18:09:50.024Z,4.79
2018-12-11T18:14:59.470Z,4.96
2018-12-11T18:20:08.684Z,4.80
2018-12-11T18:25:18.162Z,4.53
2018-12-11T18:30:25.933Z,4.38
2018-12-11T18:35:35.431Z,4.73
2018-12-11T18:53:08.230Z,6.51
2018-12-11T18:58:07.316Z,5.88
2018-12-11T19:03:17.066Z,5.55
2018-12-11T19:08:24.728Z,5.03
2018-12-11T19:13:39.051Z,5.22
2018-12-11T19:18:38.209Z,4.62
2018-12-11T19:23:47.714Z,4.76
2018-12-11T19:28:56.905Z,4.76
2018-12-11T19:34:06.295Z,4.77
2018-12-11T19:39:15.515Z,4.61
2018-12-11T19:44:25.963Z,4.48
2018-12-11T19:49:25.057Z,4.07
2018-12-11T19:54:34.480Z,4.05
2018-12-11T19:59:43.749Z,4.02
2018-12-11T20:04:53.348Z,4.08
2018-12-11T20:10:02.581Z,3.54
2018-12-11T20:15:12.253Z,3.69
2018-12-11T20:20:21.430Z,3.58
2018-12-11T20:25:31.180Z,3.50
2018-12-11T20:30:40.384Z,3.52
2018-12-11T20:35:50.047Z,3.49
2018-12-11T20:40:59.168Z,3.98
2018-12-11T20:46:08.588Z,3.54
2018-12-11T20:51:17.757Z,3.58
2018-12-11T20:56:27.578Z,3.50
2018-12-11T21:01:39.363Z,3.64
2018-12-11T21:06:38.987Z,2.94
2018-12-11T21:11:48.176Z,3.12
2018-12-11T21:16:57.853Z,3.39
2018-12-11T21:22:05.547Z,3.29
2018-12-11T21:27:15.192Z,3.27
2018-12-11T21:32:24.363Z,3.88
2018-12-11T21:37:34.125Z,3.78
2018-12-11T21:42:43.328Z,4.00
2018-12-11T21:47:52.678Z,3.80
2018-12-11T21:53:01.971Z,3.78
2018-12-11T21:58:11.332Z,4.19
2018-12-11T22:03:20.584Z,3.88
2018-12-11T22:08:30.273Z,3.82
2018-12-11T22:13:39.494Z,3.64
2018-12-11T22:18:49.261Z,3.53
2018-12-11T22:23:58.401Z,3.51
2018-12-11T22:29:07.986Z,3.56
2018-12-11T22:34:17.228Z,3.66
2018-12-11T22:39:26.783Z,3.62
2018-12-11T22:44:36.006Z,3.42
2018-12-11T22:49:45.720Z,3.29
2018-12-11T22:54:54.903Z,3.05
2018-12-11T23:00:04.284Z,2.82
2018-12-11T23:05:13.574Z,3.60
2018-12-11T23:10:23.033Z,3.23
2018-12-11T23:15:32.180Z,3.47
2018-12-11T23:20:41.546Z,3.04
2018-12-11T23:25:50.865Z,3.08
2018-12-11T23:31:00.317Z,2.82
2018-12-11T23:36:09.485Z,3.16
2018-12-11T23:41:19.162Z,2.89
2018-12-11T23:46:28.410Z,2.80
2018-12-11T23:51:37.993Z,3.30
2018-12-11T23:56:47.247Z,2.86
